PWSweather.com
Personal Weather Stations
Station Observations
BLACKWELL
Blackwell, AlfretonGB DE55

BlackwellAlfretonGB DE55

Lat: 53.12076, Lon: -1.354978

Elevation: 410

Station Type: Vantage Pro

High Low Average
Temperature 45.1°F7.3°F 32.5°F0.3°F 35.0°F1.7°F
Dew Point 42.4°F5.8°F 27.7°F-2.4°F 32.0°F0.0°F
Winds 6.0 mph -9.7 mph - Calm Calm 1.8 mph 2.9 mph
Wind Gusts 13.0 mph20.9 mph -- 5.7 mph9.2 mph
Humidity 97% 80% 89%
Pressure 30.14 in1020.70 in 29.40 in995.60 in -
Precipitation 0.35 in8.90 in - -
Hour Temp Dew Point Humidity Winds Wind Gusts Pressure Precip Precip Rate Daily Precip Total
12:48 AM 32.7°F0.4°C 30.4°F-0.9°C 91% Calm Calm -- 30.14 in1020.7 mb 0.00 in0.0 mm 0.00 in0.0 mm 0.00 in0.0 mm
01:48 AM 33.8°F1.0°C 30.9°F-0.6°C 89% Calm Calm 2.0 mph3.2 kmh 30.13 in1020.3 mb 0.00 in0.0 mm 0.00 in0.0 mm 0.00 in0.0 mm
02:48 AM 33.8°F1.0°C 30.4°F-0.9°C 87% Calm Calm 2.0 mph3.2 kmh 30.10 in1019.3 mb 0.00 in0.0 mm 0.00 in0.0 mm 0.00 in0.0 mm
03:48 AM 33.6°F0.9°C 29.3°F-1.5°C 84% Calm Calm 4.0 mph6.4 kmh 30.08 in1018.6 mb 0.00 in0.0 mm 0.00 in0.0 mm 0.00 in0.0 mm
04:48 AM 33.3°F0.7°C 28.0°F-2.2°C 81% Calm Calm 4.0 mph6.4 kmh 30.06 in1017.9 mb 0.00 in0.0 mm 0.00 in0.0 mm 0.00 in0.0 mm
05:48 AM 33.1°F0.6°C 27.7°F-2.4°C 80% Calm Calm 3.0 mph4.8 kmh 30.03 in1016.9 mb 0.00 in0.0 mm 0.00 in0.0 mm 0.00 in0.0 mm
06:48 AM 32.7°F0.4°C 27.9°F-2.3°C 82% 1.0 mph ENE1.6 kmh ENE 4.0 mph6.4 kmh 30.00 in1015.9 mb 0.00 in0.0 mm 0.00 in0.0 mm 0.00 in0.0 mm
07:48 AM 32.5°F0.3°C 28.0°F-2.2°C 83% 1.0 mph E1.6 kmh E 4.0 mph6.4 kmh 29.99 in1015.6 mb 0.00 in0.0 mm 0.00 in0.0 mm 0.00 in0.0 mm
08:48 AM 32.5°F0.3°C 28.2°F-2.1°C 84% 2.0 mph E3.2 kmh E 7.0 mph11.3 kmh 29.97 in1014.9 mb 0.00 in0.0 mm 0.00 in0.0 mm 0.00 in0.0 mm
09:48 AM 32.5°F0.3°C 28.6°F-1.9°C 85% 2.0 mph E3.2 kmh E 7.0 mph11.3 kmh 29.93 in1013.5 mb 0.00 in0.0 mm 0.00 in0.0 mm 0.00 in0.0 mm
10:48 AM 33.1°F0.6°C 29.3°F-1.5°C 86% 2.0 mph E3.2 kmh E 7.0 mph11.3 kmh 29.90 in1012.5 mb 0.00 in0.0 mm 0.00 in0.0 mm 0.00 in0.0 mm
11:48 AM 33.3°F0.7°C 29.5°F-1.4°C 86% 2.0 mph E3.2 kmh E 4.0 mph6.4 kmh 29.84 in1010.5 mb 0.00 in0.0 mm 0.00 in0.0 mm 0.00 in0.0 mm
12:48 PM 33.6°F0.9°C 29.7°F-1.3°C 85% 2.0 mph E3.2 kmh E 8.0 mph12.9 kmh 29.78 in1008.5 mb 0.00 in0.0 mm 0.00 in0.0 mm 0.00 in0.0 mm
01:48 PM 33.8°F1.0°C 30.6°F-0.8°C 88% 2.0 mph E3.2 kmh E 5.0 mph8.0 kmh 29.73 in1006.8 mb 0.00 in0.0 mm 0.00 in0.0 mm 0.00 in0.0 mm
02:48 PM 33.3°F0.7°C 31.5°F-0.3°C 93% 2.0 mph E3.2 kmh E 5.0 mph8.0 kmh 29.67 in1004.7 mb 0.04 in1.0 mm 0.00 in0.0 mm 0.05 in1.3 mm
03:48 PM 33.6°F0.9°C 32.0°F0.0°C 94% 2.0 mph E3.2 kmh E 7.0 mph11.3 kmh 29.61 in1002.7 mb 0.06 in1.5 mm 0.00 in0.0 mm 0.09 in2.3 mm
04:48 PM 33.8°F1.0°C 32.5°F0.3°C 95% 3.0 mph E4.8 kmh E 6.0 mph9.7 kmh 29.55 in1000.7 mb 0.06 in1.5 mm 0.00 in0.0 mm 0.16 in4.1 mm
05:48 PM 34.2°F1.2°C 32.9°F0.5°C 95% 2.0 mph E3.2 kmh E 6.0 mph9.7 kmh 29.51 in999.3 mb 0.11 in2.8 mm 0.00 in0.0 mm 0.27 in6.9 mm
06:48 PM 34.9°F1.6°C 33.8°F1.0°C 96% 2.0 mph E3.2 kmh E 6.0 mph9.7 kmh 29.48 in998.3 mb 0.06 in1.5 mm 0.00 in0.0 mm 0.34 in8.6 mm
07:48 PM 36.3°F2.4°C 35.2°F1.8°C 96% 3.0 mph E4.8 kmh E 6.0 mph9.7 kmh 29.43 in996.6 mb 0.00 in0.0 mm 0.00 in0.0 mm 0.34 in8.6 mm
08:48 PM 38.1°F3.4°C 37.2°F2.9°C 96% 2.0 mph E3.2 kmh E 7.0 mph11.3 kmh 29.41 in995.9 mb 0.00 in0.0 mm 0.00 in0.0 mm 0.34 in8.6 mm
09:48 PM 41.4°F5.2°C 40.6°F4.8°C 97% 1.0 mph S1.6 kmh S 8.0 mph12.9 kmh 29.40 in995.6 mb 0.01 in0.3 mm 0.00 in0.0 mm 0.35 in8.9 mm
10:48 PM 44.6°F7.0°C 42.4°F5.8°C 92% 6.0 mph WSW9.7 kmh WSW 13.0 mph20.9 kmh 29.43 in996.6 mb 0.01 in0.3 mm 0.00 in0.0 mm 0.35 in8.9 mm
11:48 PM 45.1°F7.3°C 41.2°F5.1°C 86% 6.0 mph WSW9.7 kmh WSW 11.0 mph17.7 kmh 29.46 in997.6 mb 0.00 in0.0 mm 0.00 in0.0 mm 0.35 in8.9 mm